sensor_id;sensor_type;location;lat;lon;timestamp;pressure;altitude;pressure_sealevel;temperature;humidity
39954;BME280;25631;51.516;-0.470;2023-04-03T00:01:44;102888.25;;;5.56;32.12
39954;BME280;25631;51.516;-0.470;2023-04-03T00:04:21;102890.21;;;5.69;32.09
39954;BME280;25631;51.516;-0.470;2023-04-03T00:06:58;102886.69;;;5.63;32.16
39954;BME280;25631;51.516;-0.470;2023-04-03T00:09:34;102884.41;;;5.59;32.16
39954;BME280;25631;51.516;-0.470;2023-04-03T00:12:10;102886.27;;;5.67;32.19
39954;BME280;25631;51.516;-0.470;2023-04-03T00:14:47;102887.31;;;5.53;32.23
39954;BME280;25631;51.516;-0.470;2023-04-03T00:17:23;102886.06;;;5.48;32.24
39954;BME280;25631;51.516;-0.470;2023-04-03T00:20:00;102881.92;;;5.49;32.21
39954;BME280;25631;51.516;-0.470;2023-04-03T00:22:36;102879.96;;;5.43;32.18
39954;BME280;25631;51.516;-0.470;2023-04-03T00:25:13;102876.18;;;5.21;32.23
39954;BME280;25631;51.516;-0.470;2023-04-03T00:27:49;102872.13;;;5.22;32.33
39954;BME280;25631;51.516;-0.470;2023-04-03T00:30:26;102873.23;;;5.17;32.41
39954;BME280;25631;51.516;-0.470;2023-04-03T00:33:03;102872.25;;;5.22;32.43
39954;BME280;25631;51.516;-0.470;2023-04-03T00:35:40;102865.72;;;5.10;32.45
39954;BME280;25631;51.516;-0.470;2023-04-03T00:38:17;102862.55;;;5.09;32.43
39954;BME280;25631;51.516;-0.470;2023-04-03T00:40:53;102859.46;;;5.19;32.47
39954;BME280;25631;51.516;-0.470;2023-04-03T00:43:30;102857.65;;;5.30;32.56
39954;BME280;25631;51.516;-0.470;2023-04-03T00:46:07;102861.17;;;5.10;32.64
39954;BME280;25631;51.516;-0.470;2023-04-03T00:48:45;102863.78;;;5.11;32.68
39954;BME280;25631;51.516;-0.470;2023-04-03T00:51:24;102864.01;;;4.99;32.71
39954;BME280;25631;51.516;-0.470;2023-04-03T00:54:03;102863.04;;;4.91;32.81
39954;BME280;25631;51.516;-0.470;2023-04-03T00:56:41;102859.17;;;5.03;32.80
39954;BME280;25631;51.516;-0.470;2023-04-03T00:59:21;102861.20;;;4.96;32.90
39954;BME280;25631;51.516;-0.470;2023-04-03T01:02:00;102862.78;;;4.80;33.03
39954;BME280;25631;51.516;-0.470;2023-04-03T01:04:39;102862.84;;;4.77;33.04
39954;BME280;25631;51.516;-0.470;2023-04-03T01:07:18;102864.94;;;4.74;33.06
39954;BME280;25631;51.516;-0.470;2023-04-03T01:09:59;102861.92;;;4.87;33.11
39954;BME280;25631;51.516;-0.470;2023-04-03T01:12:38;102858.08;;;4.62;33.17
39954;BME280;25631;51.516;-0.470;2023-04-03T01:15:17;102856.16;;;4.77;33.24
39954;BME280;25631;51.516;-0.470;2023-04-03T01:17:55;102857.30;;;4.93;33.27
39954;BME280;25631;51.516;-0.470;2023-04-03T01:21:10;102854.40;;;4.57;33.27
39954;BME280;25631;51.516;-0.470;2023-04-03T01:24:01;102857.22;;;4.66;33.33
39954;BME280;25631;51.516;-0.470;2023-04-03T01:26:39;102860.02;;;4.76;33.35
39954;BME280;25631;51.516;-0.470;2023-04-03T01:29:16;102858.43;;;4.58;33.37
39954;BME280;25631;51.516;-0.470;2023-04-03T01:31:55;102855.97;;;4.71;33.40
39954;BME280;25631;51.516;-0.470;2023-04-03T01:34:32;102856.52;;;4.64;33.42
39954;BME280;25631;51.516;-0.470;2023-04-03T01:37:09;102855.20;;;4.64;33.42
39954;BME280;25631;51.516;-0.470;2023-04-03T01:39:45;102853.80;;;4.80;33.42
39954;BME280;25631;51.516;-0.470;2023-04-03T01:42:22;102852.72;;;4.47;33.40
39954;BME280;25631;51.516;-0.470;2023-04-03T01:44:58;102854.97;;;4.75;33.38
39954;BME280;25631;51.516;-0.470;2023-04-03T01:47:35;102852.71;;;4.75;33.35
39954;BME280;25631;51.516;-0.470;2023-04-03T01:50:11;102849.99;;;4.54;33.35
39954;BME280;25631;51.516;-0.470;2023-04-03T01:52:48;102851.80;;;4.77;33.35
39954;BME280;25631;51.516;-0.470;2023-04-03T01:55:24;102855.01;;;4.63;33.36
39954;BME280;25631;51.516;-0.470;2023-04-03T01:58:00;102854.09;;;4.65;33.39
39954;BME280;25631;51.516;-0.470;2023-04-03T02:00:37;102851.76;;;4.51;33.42
39954;BME280;25631;51.516;-0.470;2023-04-03T02:03:14;102850.52;;;4.35;33.45
39954;BME280;25631;51.516;-0.470;2023-04-03T02:05:50;102853.54;;;4.66;33.53
39954;BME280;25631;51.516;-0.470;2023-04-03T02:08:27;102855.38;;;4.56;33.51
39954;BME280;25631;51.516;-0.470;2023-04-03T02:11:04;102855.04;;;4.49;33.54
39954;BME280;25631;51.516;-0.470;2023-04-03T02:13:41;102855.23;;;4.32;33.54
39954;BME280;25631;51.516;-0.470;2023-04-03T02:16:18;102857.68;;;4.23;33.57
39954;BME280;25631;51.516;-0.470;2023-04-03T02:18:54;102856.63;;;4.26;33.60
39954;BME280;25631;51.516;-0.470;2023-04-03T02:21:31;102856.52;;;4.05;33.65
39954;BME280;25631;51.516;-0.470;2023-04-03T02:24:08;102856.89;;;3.98;33.74
39954;BME280;25631;51.516;-0.470;2023-04-03T02:26:44;102855.60;;;3.71;33.81
39954;BME280;25631;51.516;-0.470;2023-04-03T02:29:21;102858.43;;;4.00;33.93
39954;BME280;25631;51.516;-0.470;2023-04-03T02:31:57;102855.04;;;4.02;34.02
39954;BME280;25631;51.516;-0.470;2023-04-03T02:34:34;102854.71;;;3.81;34.03
39954;BME280;25631;51.516;-0.470;2023-04-03T02:37:11;102852.60;;;3.91;34.04
39954;BME280;25631;51.516;-0.470;2023-04-03T02:39:47;102850.44;;;3.84;34.12
39954;BME280;25631;51.516;-0.470;2023-04-03T02:42:24;102850.88;;;3.81;34.12
39954;BME280;25631;51.516;-0.470;2023-04-03T02:45:00;102848.64;;;3.78;34.13
39954;BME280;25631;51.516;-0.470;2023-04-03T02:47:37;102849.97;;;3.64;34.09
39954;BME280;25631;51.516;-0.470;2023-04-03T02:50:13;102846.64;;;3.54;34.13
39954;BME280;25631;51.516;-0.470;2023-04-03T02:52:50;102848.13;;;3.74;34.17
39954;BME280;25631;51.516;-0.470;2023-04-03T02:55:26;102844.69;;;3.60;34.17
39954;BME280;25631;51.516;-0.470;2023-04-03T02:58:03;102845.32;;;3.84;34.23
39954;BME280;25631;51.516;-0.470;2023-04-03T03:00:39;102845.52;;;3.67;34.23
39954;BME280;25631;51.516;-0.470;2023-04-03T03:03:16;102845.89;;;3.93;34.28
39954;BME280;25631;51.516;-0.470;2023-04-03T03:06:01;102843.94;;;3.59;34.32
39954;BME280;25631;51.516;-0.470;2023-04-03T03:08:38;102843.27;;;3.56;34.28
39954;BME280;25631;51.516;-0.470;2023-04-03T03:11:15;102842.31;;;3.73;34.32
39954;BME280;25631;51.516;-0.470;2023-04-03T03:13:52;102839.12;;;3.35;34.37
39954;BME280;25631;51.516;-0.470;2023-04-03T03:16:28;102837.89;;;3.41;34.36
39954;BME280;25631;51.516;-0.470;2023-04-03T03:19:05;102838.26;;;3.52;34.37
39954;BME280;25631;51.516;-0.470;2023-04-03T03:21:42;102835.58;;;3.52;34.36
39954;BME280;25631;51.516;-0.470;2023-04-03T03:24:19;102833.62;;;3.72;34.36
39954;BME280;25631;51.516;-0.470;2023-04-03T03:26:55;102831.54;;;3.61;34.38
39954;BME280;25631;51.516;-0.470;2023-04-03T03:29:32;102829.09;;;3.37;34.39
39954;BME280;25631;51.516;-0.470;2023-04-03T03:32:08;102824.85;;;3.58;34.48
39954;BME280;25631;51.516;-0.470;2023-04-03T03:34:45;102822.90;;;3.24;34.48
39954;BME280;25631;51.516;-0.470;2023-04-03T03:37:21;102825.29;;;3.42;34.58
39954;BME280;25631;51.516;-0.470;2023-04-03T03:39:58;102823.66;;;3.52;34.56
39954;BME280;25631;51.516;-0.470;2023-04-03T03:42:34;102819.26;;;3.32;34.64
39954;BME280;25631;51.516;-0.470;2023-04-03T03:45:11;102817.94;;;3.29;34.69
39954;BME280;25631;51.516;-0.470;2023-04-03T03:47:47;102815.22;;;3.00;34.67
39954;BME280;25631;51.516;-0.470;2023-04-03T03:50:23;102815.88;;;3.34;34.69
39954;BME280;25631;51.516;-0.470;2023-04-03T03:53:00;102814.76;;;3.27;34.74
39954;BME280;25631;51.516;-0.470;2023-04-03T03:55:36;102814.19;;;3.23;34.78
39954;BME280;25631;51.516;-0.470;2023-04-03T03:58:13;102808.63;;;2.90;34.83
39954;BME280;25631;51.516;-0.470;2023-04-03T04:00:49;102806.60;;;3.12;34.94
39954;BME280;25631;51.516;-0.470;2023-04-03T04:03:26;102806.03;;;2.73;34.98
39954;BME280;25631;51.516;-0.470;2023-04-03T04:06:03;102809.52;;;3.25;35.05
39954;BME280;25631;51.516;-0.470;2023-04-03T04:08:39;102815.13;;;3.36;35.06
39954;BME280;25631;51.516;-0.470;2023-04-03T04:11:16;102814.56;;;3.21;35.10
39954;BME280;25631;51.516;-0.470;2023-04-03T04:13:53;102810.19;;;3.01;35.12
39954;BME280;25631;51.516;-0.470;2023-04-03T04:16:29;102807.84;;;3.08;35.19
39954;BME280;25631;51.516;-0.470;2023-04-03T04:19:06;102804.06;;;3.04;35.14
39954;BME280;25631;51.516;-0.470;2023-04-03T04:21:42;102806.28;;;3.02;35.10
39954;BME280;25631;51.516;-0.470;2023-04-03T04:24:19;102804.14;;;2.86;35.12
39954;BME280;25631;51.516;-0.470;2023-04-03T04:26:55;102804.00;;;3.00;35.19
39954;BME280;25631;51.516;-0.470;2023-04-03T04:29:32;102807.87;;;2.82;35.22
39954;BME280;25631;51.516;-0.470;2023-04-03T04:32:08;102805.45;;;2.90;35.27
39954;BME280;25631;51.516;-0.470;2023-04-03T04:34:45;102808.03;;;2.88;35.20
39954;BME280;25631;51.516;-0.470;2023-04-03T04:37:21;102811.23;;;2.94;35.30
39954;BME280;25631;51.516;-0.470;2023-04-03T04:39:58;102810.98;;;3.06;35.36
39954;BME280;25631;51.516;-0.470;2023-04-03T04:42:34;102811.05;;;3.08;35.43
39954;BME280;25631;51.516;-0.470;2023-04-03T04:45:11;102806.73;;;2.96;35.41
39954;BME280;25631;51.516;-0.470;2023-04-03T04:47:48;102802.14;;;3.27;35.33
39954;BME280;25631;51.516;-0.470;2023-04-03T04:50:24;102803.91;;;2.96;35.27
39954;BME280;25631;51.516;-0.470;2023-04-03T04:53:00;102807.85;;;3.09;35.18
39954;BME280;25631;51.516;-0.470;2023-04-03T04:55:37;102807.33;;;3.03;35.08
39954;BME280;25631;51.516;-0.470;2023-04-03T04:58:13;102807.38;;;3.03;35.04
39954;BME280;25631;51.516;-0.470;2023-04-03T05:00:50;102807.40;;;3.23;35.05
39954;BME280;25631;51.516;-0.470;2023-04-03T05:03:34;102807.63;;;2.99;35.02
39954;BME280;25631;51.516;-0.470;2023-04-03T05:06:11;102811.41;;;3.12;35.03
39954;BME280;25631;51.516;-0.470;2023-04-03T05:08:47;102811.26;;;3.14;35.05
39954;BME280;25631;51.516;-0.470;2023-04-03T05:11:24;102812.44;;;3.07;35.07
39954;BME280;25631;51.516;-0.470;2023-04-03T05:14:01;102812.40;;;2.97;35.00
39954;BME280;25631;51.516;-0.470;2023-04-03T05:16:37;102814.64;;;3.20;35.01
39954;BME280;25631;51.516;-0.470;2023-04-03T05:19:15;102817.66;;;3.04;34.95
39954;BME280;25631;51.516;-0.470;2023-04-03T05:21:51;102817.21;;;3.23;34.95
39954;BME280;25631;51.516;-0.470;2023-04-03T05:24:28;102822.91;;;3.09;34.97
39954;BME280;25631;51.516;-0.470;2023-04-03T05:27:05;102825.16;;;2.94;34.99
39954;BME280;25631;51.516;-0.470;2023-04-03T05:29:41;102827.18;;;3.35;34.76
39954;BME280;25631;51.516;-0.470;2023-04-03T05:32:18;102823.51;;;3.09;34.67
39954;BME280;25631;51.516;-0.470;2023-04-03T05:34:54;102827.96;;;3.16;34.73
39954;BME280;25631;51.516;-0.470;2023-04-03T05:37:31;102833.99;;;3.29;34.78
39954;BME280;25631;51.516;-0.470;2023-04-03T05:40:08;102831.22;;;3.47;34.94
39954;BME280;25631;51.516;-0.470;2023-04-03T05:42:45;102834.84;;;3.29;35.05
39954;BME280;25631;51.516;-0.470;2023-04-03T05:45:22;102832.76;;;3.01;35.02
39954;BME280;25631;51.516;-0.470;2023-04-03T05:47:58;102828.93;;;3.21;35.05
39954;BME280;25631;51.516;-0.470;2023-04-03T05:50:35;102831.02;;;2.98;35.04
39954;BME280;25631;51.516;-0.470;2023-04-03T05:53:17;102834.29;;;3.19;35.08
39954;BME280;25631;51.516;-0.470;2023-04-03T05:55:54;102833.90;;;3.15;35.15
39954;BME280;25631;51.516;-0.470;2023-04-03T05:58:30;102830.08;;;3.19;35.17
39954;BME280;25631;51.516;-0.470;2023-04-03T06:01:07;102829.32;;;3.22;35.18
39954;BME280;25631;51.516;-0.470;2023-04-03T06:03:43;102827.66;;;3.46;35.20
39954;BME280;25631;51.516;-0.470;2023-04-03T06:06:20;102833.44;;;3.50;35.30
39954;BME280;25631;51.516;-0.470;2023-04-03T06:08:56;102835.00;;;3.07;35.41
39954;BME280;25631;51.516;-0.470;2023-04-03T06:11:33;102838.27;;;3.40;35.47
39954;BME280;25631;51.516;-0.470;2023-04-03T06:14:10;102840.44;;;3.42;35.49
39954;BME280;25631;51.516;-0.470;2023-04-03T06:16:47;102846.51;;;3.25;35.59
39954;BME280;25631;51.516;-0.470;2023-04-03T06:19:23;102841.43;;;3.22;35.55
39954;BME280;25631;51.516;-0.470;2023-04-03T06:22:00;102845.98;;;3.64;35.48
39954;BME280;25631;51.516;-0.470;2023-04-03T06:24:37;102848.95;;;3.86;35.41
39954;BME280;25631;51.516;-0.470;2023-04-03T06:27:13;102845.69;;;3.60;35.41
39954;BME280;25631;51.516;-0.470;2023-04-03T06:29:50;102849.37;;;3.57;35.42
39954;BME280;25631;51.516;-0.470;2023-04-03T06:32:27;102854.09;;;3.69;35.59
39954;BME280;25631;51.516;-0.470;2023-04-03T06:35:04;102849.78;;;3.69;35.41
39954;BME280;25631;51.516;-0.470;2023-04-03T06:37:41;102852.20;;;3.72;35.39
39954;BME280;25631;51.516;-0.470;2023-04-03T06:40:20;102850.90;;;3.89;35.40
39954;BME280;25631;51.516;-0.470;2023-04-03T06:42:57;102849.76;;;3.86;35.38
39954;BME280;25631;51.516;-0.470;2023-04-03T06:45:34;102849.98;;;4.12;35.42
39954;BME280;25631;51.516;-0.470;2023-04-03T06:48:10;102850.10;;;3.99;35.39
39954;BME280;25631;51.516;-0.470;2023-04-03T06:50:47;102846.53;;;4.22;35.31
39954;BME280;25631;51.516;-0.470;2023-04-03T06:53:23;102843.90;;;4.07;35.28
39954;BME280;25631;51.516;-0.470;2023-04-03T06:56:00;102842.13;;;4.20;35.26
39954;BME280;25631;51.516;-0.470;2023-04-03T06:58:37;102840.08;;;4.26;35.26
39954;BME280;25631;51.516;-0.470;2023-04-03T07:01:15;102839.56;;;4.30;35.14
39954;BME280;25631;51.516;-0.470;2023-04-03T07:03:52;102836.70;;;3.95;35.16
39954;BME280;25631;51.516;-0.470;2023-04-03T07:06:29;102841.89;;;4.16;35.12
39954;BME280;25631;51.516;-0.470;2023-04-03T07:09:05;102841.47;;;4.25;35.15
39954;BME280;25631;51.516;-0.470;2023-04-03T07:11:42;102843.18;;;4.35;35.23
39954;BME280;25631;51.516;-0.470;2023-04-03T07:14:18;102848.64;;;4.38;35.29
39954;BME280;25631;51.516;-0.470;2023-04-03T07:16:55;102843.33;;;4.27;35.31
39954;BME280;25631;51.516;-0.470;2023-04-03T07:19:32;102838.80;;;4.00;35.23
39954;BME280;25631;51.516;-0.470;2023-04-03T07:22:08;102840.72;;;4.59;35.13
39954;BME280;25631;51.516;-0.470;2023-04-03T07:24:45;102840.29;;;4.65;35.14
39954;BME280;25631;51.516;-0.470;2023-04-03T07:27:22;102838.21;;;4.70;35.19
39954;BME280;25631;51.516;-0.470;2023-04-03T07:29:58;102840.01;;;4.44;35.17
39954;BME280;25631;51.516;-0.470;2023-04-03T07:32:35;102838.94;;;4.50;35.06
39954;BME280;25631;51.516;-0.470;2023-04-03T07:35:12;102838.05;;;4.70;34.96
39954;BME280;25631;51.516;-0.470;2023-04-03T07:37:48;102837.93;;;4.70;34.96
39954;BME280;25631;51.516;-0.470;2023-04-03T07:40:25;102837.29;;;4.71;34.95
39954;BME280;25631;51.516;-0.470;2023-04-03T07:43:02;102835.50;;;4.62;34.96
39954;BME280;25631;51.516;-0.470;2023-04-03T07:45:38;102840.65;;;4.82;35.04
39954;BME280;25631;51.516;-0.470;2023-04-03T07:48:16;102842.31;;;4.89;35.08
39954;BME280;25631;51.516;-0.470;2023-04-03T07:50:53;102841.73;;;4.85;35.14
39954;BME280;25631;51.516;-0.470;2023-04-03T07:53:29;102839.95;;;5.02;35.19
39954;BME280;25631;51.516;-0.470;2023-04-03T07:56:07;102847.58;;;5.21;35.19
39954;BME280;25631;51.516;-0.470;2023-04-03T07:58:47;102847.61;;;5.38;35.10
39954;BME280;25631;51.516;-0.470;2023-04-03T08:01:23;102851.09;;;5.43;35.13
39954;BME280;25631;51.516;-0.470;2023-04-03T08:04:00;102850.33;;;5.59;35.11
39954;BME280;25631;51.516;-0.470;2023-04-03T08:06:37;102844.15;;;5.57;35.02
39954;BME280;25631;51.516;-0.470;2023-04-03T08:09:14;102844.26;;;5.64;35.00
39954;BME280;25631;51.516;-0.470;2023-04-03T08:11:50;102845.58;;;5.62;35.08
39954;BME280;25631;51.516;-0.470;2023-04-03T08:14:27;102846.22;;;5.67;35.14
39954;BME280;25631;51.516;-0.470;2023-04-03T08:17:06;102851.64;;;5.83;35.15
39954;BME280;25631;51.516;-0.470;2023-04-03T08:19:43;102853.88;;;5.76;35.11
39954;BME280;25631;51.516;-0.470;2023-04-03T08:22:19;102856.96;;;6.01;35.07
39954;BME280;25631;51.516;-0.470;2023-04-03T08:24:56;102861.21;;;5.97;35.08
39954;BME280;25631;51.516;-0.470;2023-04-03T08:27:33;102859.76;;;5.95;35.08
39954;BME280;25631;51.516;-0.470;2023-04-03T08:30:10;102858.33;;;5.97;35.14
39954;BME280;25631;51.516;-0.470;2023-04-03T08:32:48;102856.15;;;2.70;34.96
39954;BME280;25631;51.516;-0.470;2023-04-03T08:35:25;102850.91;;;0.62;32.76
39954;BME280;25631;51.516;-0.470;2023-04-03T08:38:00;102848.53;;;2.11;30.63
39954;BME280;25631;51.516;-0.470;2023-04-03T08:40:36;102853.27;;;2.92;29.45
39954;BME280;25631;51.516;-0.470;2023-04-03T08:43:27;102854.72;;;3.39;28.75
39954;BME280;25631;51.516;-0.470;2023-04-03T08:46:07;102855.78;;;4.06;28.15
39954;BME280;25631;51.516;-0.470;2023-04-03T08:48:47;102853.03;;;3.66;28.16
39954;BME280;25631;51.516;-0.470;2023-04-03T08:51:24;102848.03;;;4.36;27.76
39954;BME280;25631;51.516;-0.470;2023-04-03T08:54:06;102847.57;;;4.54;27.77
39954;BME280;25631;51.516;-0.470;2023-04-03T08:56:51;102851.85;;;4.92;27.29
39954;BME280;25631;51.516;-0.470;2023-04-03T08:59:32;102849.52;;;5.14;27.16
39954;BME280;25631;51.516;-0.470;2023-04-03T09:02:23;102847.20;;;4.79;26.86
39954;BME280;25631;51.516;-0.470;2023-04-03T09:05:01;102846.65;;;5.45;26.88
39954;BME280;25631;51.516;-0.470;2023-04-03T09:07:42;102840.09;;;5.63;27.20
39954;BME280;25631;51.516;-0.470;2023-04-03T09:10:23;102839.26;;;5.05;27.36
39954;BME280;25631;51.516;-0.470;2023-04-03T09:13:03;102838.40;;;4.85;27.39
39954;BME280;25631;51.516;-0.470;2023-04-03T09:15:42;102836.87;;;5.44;27.29
39954;BME280;25631;51.516;-0.470;2023-04-03T09:18:23;102834.33;;;4.41;27.02
39954;BME280;25631;51.516;-0.470;2023-04-03T09:21:08;102835.52;;;5.59;26.69
39954;BME280;25631;51.516;-0.470;2023-04-03T09:23:50;102826.62;;;4.91;26.58
39954;BME280;25631;51.516;-0.470;2023-04-03T09:26:30;102827.47;;;5.57;26.55
39954;BME280;25631;51.516;-0.470;2023-04-03T09:29:10;102829.44;;;4.91;26.83
39954;BME280;25631;51.516;-0.470;2023-04-03T09:31:55;102828.83;;;5.56;26.77
39954;BME280;25631;51.516;-0.470;2023-04-03T09:34:38;102827.12;;;6.05;26.57
39954;BME280;25631;51.516;-0.470;2023-04-03T09:37:39;102822.20;;;5.80;26.83
39954;BME280;25631;51.516;-0.470;2023-04-03T09:40:35;102822.98;;;5.98;26.63
39954;BME280;25631;51.516;-0.470;2023-04-03T09:43:28;102820.58;;;10.43;26.83
39954;BME280;25631;51.516;-0.470;2023-04-03T09:46:24;102822.95;;;10.64;28.79
39954;BME280;25631;51.516;-0.470;2023-04-03T09:49:04;102822.00;;;9.69;29.82
39954;BME280;25631;51.516;-0.470;2023-04-03T09:51:41;102824.37;;;9.27;30.57
39954;BME280;25631;51.516;-0.470;2023-04-03T09:54:32;102820.38;;;9.17;30.71
39954;BME280;25631;51.516;-0.470;2023-04-03T09:57:12;102821.30;;;9.19;30.92
39954;BME280;25631;51.516;-0.470;2023-04-03T09:59:58;102827.25;;;9.03;29.92
39954;BME280;25631;51.516;-0.470;2023-04-03T10:02:37;102829.41;;;8.45;30.26
39954;BME280;25631;51.516;-0.470;2023-04-03T10:05:28;102828.09;;;8.61;30.65
39954;BME280;25631;51.516;-0.470;2023-04-03T10:08:11;102830.83;;;8.47;29.96
39954;BME280;25631;51.516;-0.470;2023-04-03T10:11:27;102827.72;;;8.78;29.87
39954;BME280;25631;51.516;-0.470;2023-04-03T10:14:04;102829.68;;;8.81;29.89
39954;BME280;25631;51.516;-0.470;2023-04-03T10:16:43;102826.83;;;8.96;30.07
39954;BME280;25631;51.516;-0.470;2023-04-03T10:19:34;102828.93;;;8.71;30.16
39954;BME280;25631;51.516;-0.470;2023-04-03T10:22:20;102832.17;;;9.17;30.31
39954;BME280;25631;51.516;-0.470;2023-04-03T10:25:04;102835.80;;;9.33;30.14
39954;BME280;25631;51.516;-0.470;2023-04-03T10:27:49;102835.74;;;9.13;29.89
39954;BME280;25631;51.516;-0.470;2023-04-03T10:30:34;102831.22;;;9.44;30.05
39954;BME280;25631;51.516;-0.470;2023-04-03T10:33:23;102829.93;;;9.25;29.51
39954;BME280;25631;51.516;-0.470;2023-04-03T10:36:12;102826.41;;;9.13;29.51
39954;BME280;25631;51.516;-0.470;2023-04-03T10:38:59;102829.99;;;9.24;29.82
39954;BME280;25631;51.516;-0.470;2023-04-03T10:41:47;102829.66;;;9.41;30.20
39954;BME280;25631;51.516;-0.470;2023-04-03T10:44:35;102826.28;;;9.22;29.79
39954;BME280;25631;51.516;-0.470;2023-04-03T10:47:20;102818.24;;;9.64;29.61
39954;BME280;25631;51.516;-0.470;2023-04-03T10:50:05;102816.36;;;9.93;29.18
39954;BME280;25631;51.516;-0.470;2023-04-03T10:52:50;102816.47;;;9.56;28.74
39954;BME280;25631;51.516;-0.470;2023-04-03T10:55:36;102808.56;;;9.55;27.72
39954;BME280;25631;51.516;-0.470;2023-04-03T10:58:26;102809.46;;;9.33;28.09
39954;BME280;25631;51.516;-0.470;2023-04-03T11:01:08;102809.49;;;9.46;27.72
39954;BME280;25631;51.516;-0.470;2023-04-03T11:03:49;102811.14;;;9.69;28.10
39954;BME280;25631;51.516;-0.470;2023-04-03T11:06:31;102807.04;;;9.87;28.27
39954;BME280;25631;51.516;-0.470;2023-04-03T11:09:18;102809.18;;;10.05;28.43
39954;BME280;25631;51.516;-0.470;2023-04-03T11:12:00;102807.37;;;10.15;28.38
39954;BME280;25631;51.516;-0.470;2023-04-03T11:14:38;102811.19;;;9.89;28.44
39954;BME280;25631;51.516;-0.470;2023-04-03T11:17:27;102808.27;;;10.37;28.18
39954;BME280;25631;51.516;-0.470;2023-04-03T11:20:10;102801.07;;;10.49;28.16
39954;BME280;25631;51.516;-0.470;2023-04-03T11:22:54;102799.05;;;10.68;28.01
39954;BME280;25631;51.516;-0.470;2023-04-03T11:25:35;102797.45;;;10.43;28.03
39954;BME280;25631;51.516;-0.470;2023-04-03T11:28:14;102793.47;;;10.48;28.36
39954;BME280;25631;51.516;-0.470;2023-04-03T11:30:57;102797.56;;;10.45;28.21
39954;BME280;25631;51.516;-0.470;2023-04-03T11:33:45;102796.95;;;10.55;28.30
39954;BME280;25631;51.516;-0.470;2023-04-03T11:36:28;102789.73;;;10.60;27.77
39954;BME280;25631;51.516;-0.470;2023-04-03T11:39:15;102786.50;;;10.86;27.64
39954;BME280;25631;51.516;-0.470;2023-04-03T11:41:54;102780.13;;;10.70;27.40
39954;BME280;25631;51.516;-0.470;2023-04-03T11:44:34;102783.82;;;10.44;27.40
39954;BME280;25631;51.516;-0.470;2023-04-03T11:47:12;102779.31;;;10.62;27.41
39954;BME280;25631;51.516;-0.470;2023-04-03T11:50:51;102775.37;;;10.48;27.53
39954;BME280;25631;51.516;-0.470;2023-04-03T11:53:33;102768.64;;;10.66;27.48
39954;BME280;25631;51.516;-0.470;2023-04-03T11:56:42;102760.91;;;10.68;27.68
39954;BME280;25631;51.516;-0.470;2023-04-03T11:59:23;102752.82;;;10.85;27.90
39954;BME280;25631;51.516;-0.470;2023-04-03T12:02:00;102745.56;;;10.85;26.65
39954;BME280;25631;51.516;-0.470;2023-04-03T12:04:37;102750.42;;;10.89;26.50
39954;BME280;25631;51.516;-0.470;2023-04-03T12:07:18;102747.25;;;11.07;26.56
39954;BME280;25631;51.516;-0.470;2023-04-03T12:09:58;102744.63;;;11.49;26.86
39954;BME280;25631;51.516;-0.470;2023-04-03T12:12:39;102748.61;;;10.71;26.26
39954;BME280;25631;51.516;-0.470;2023-04-03T12:15:25;102741.64;;;11.76;25.88
39954;BME280;25631;51.516;-0.470;2023-04-03T12:18:55;102737.09;;;11.76;25.54
39954;BME280;25631;51.516;-0.470;2023-04-03T12:22:13;102736.46;;;11.79;24.82
39954;BME280;25631;51.516;-0.470;2023-04-03T12:24:52;102726.60;;;11.55;23.84
39954;BME280;25631;51.516;-0.470;2023-04-03T12:27:33;102730.25;;;11.49;24.79
39954;BME280;25631;51.516;-0.470;2023-04-03T12:30:19;102727.77;;;11.98;24.86
39954;BME280;25631;51.516;-0.470;2023-04-03T12:33:17;102727.74;;;11.87;24.98
39954;BME280;25631;51.516;-0.470;2023-04-03T12:36:04;102718.01;;;12.05;24.93
39954;BME280;25631;51.516;-0.470;2023-04-03T12:39:17;102719.55;;;12.20;24.83
39954;BME280;25631;51.516;-0.470;2023-04-03T12:42:05;102719.85;;;12.20;23.62
39954;BME280;25631;51.516;-0.470;2023-04-03T12:44:55;102712.80;;;12.43;24.00
39954;BME280;25631;51.516;-0.470;2023-04-03T12:47:36;102712.38;;;12.40;23.12
39954;BME280;25631;51.516;-0.470;2023-04-03T12:50:21;102713.77;;;12.25;23.96
39954;BME280;25631;51.516;-0.470;2023-04-03T12:53:00;102709.95;;;12.57;24.30
39954;BME280;25631;51.516;-0.470;2023-04-03T12:55:38;102707.43;;;12.77;23.93
39954;BME280;25631;51.516;-0.470;2023-04-03T12:58:21;102705.33;;;12.94;22.97
39954;BME280;25631;51.516;-0.470;2023-04-03T13:01:00;102705.65;;;12.93;23.13
39954;BME280;25631;51.516;-0.470;2023-04-03T13:03:40;102697.80;;;12.67;22.77
39954;BME280;25631;51.516;-0.470;2023-04-03T13:06:19;102697.56;;;12.84;22.88
39954;BME280;25631;51.516;-0.470;2023-04-03T13:08:57;102696.41;;;12.67;22.85
39954;BME280;25631;51.516;-0.470;2023-04-03T13:11:37;102689.20;;;12.41;22.39
39954;BME280;25631;51.516;-0.470;2023-04-03T13:14:18;102692.45;;;12.79;23.24
39954;BME280;25631;51.516;-0.470;2023-04-03T13:16:57;102690.09;;;13.15;23.41
39954;BME280;25631;51.516;-0.470;2023-04-03T13:19:34;102689.13;;;13.28;23.06
39954;BME280;25631;51.516;-0.470;2023-04-03T13:22:22;102686.15;;;13.09;22.85
39954;BME280;25631;51.516;-0.470;2023-04-03T13:25:05;102679.05;;;13.40;22.61
39954;BME280;25631;51.516;-0.470;2023-04-03T13:27:43;102681.57;;;13.42;22.55
39954;BME280;25631;51.516;-0.470;2023-04-03T13:30:24;102672.91;;;13.47;22.08
39954;BME280;25631;51.516;-0.470;2023-04-03T13:33:04;102669.53;;;13.51;21.67
39954;BME280;25631;51.516;-0.470;2023-04-03T13:35:42;102664.55;;;13.44;21.51
39954;BME280;25631;51.516;-0.470;2023-04-03T13:38:24;102664.23;;;13.44;22.28
39954;BME280;25631;51.516;-0.470;2023-04-03T13:41:03;102666.36;;;13.65;22.53
39954;BME280;25631;51.516;-0.470;2023-04-03T13:43:40;102668.93;;;13.82;22.21
39954;BME280;25631;51.516;-0.470;2023-04-03T13:46:26;102666.70;;;13.84;21.59
39954;BME280;25631;51.516;-0.470;2023-04-03T13:49:18;102669.86;;;13.74;21.72
39954;BME280;25631;51.516;-0.470;2023-04-03T13:51:55;102666.87;;;13.30;21.11
39954;BME280;25631;51.516;-0.470;2023-04-03T13:54:35;102666.32;;;13.70;21.93